Time;durP1;ratioP1;P1;durP2;ratioP2;P2;SDS_P1;SDS_P2;PMS_P1;PMS_P2;Temp;Humidity;BMP_temperature;BMP_pressure;BME280_temperature;BME280_humidity;BME280_pressure;Samples;Min_cycle;Max_cycle;Signal;HPM_P1;HPM_P2
2023/05/16 00:02:12;;;;;;;26.35;18.90;;;;;;;;;;8262651;28;20038;-60
2023/05/16 00:06:12;;;;;;;25.27;18.17;;;;;;;;;;8264583;28;20029;-60
2023/05/16 00:10:13;;;;;;;25.85;17.65;;;;;;;;;;8264907;28;20054;-60
2023/05/16 00:14:14;;;;;;;23.60;17.58;;;;;;;;;;8263781;28;20087;-60
2023/05/16 00:18:15;;;;;;;24.00;17.45;;;;;;;;;;8262212;28;20041;-60
2023/05/16 00:22:16;;;;;;;23.77;17.48;;;;;;;;;;8262162;28;20028;-61
2023/05/16 00:26:16;;;;;;;24.60;19.02;;;;;;;;;;8263785;28;20498;-60
2023/05/16 00:30:16;;;;;;;24.00;18.33;;;;;;;;;;8264175;28;20025;-60
2023/05/16 00:34:16;;;;;;;22.33;17.38;;;;;;;;;;8264989;28;20022;-60
2023/05/16 00:38:16;;;;;;;22.77;16.83;;;;;;;;;;8262954;28;20512;-60
2023/05/16 00:42:20;;;;;;;21.20;15.38;;;;;;;;;;8263123;28;21050;-60
2023/05/16 00:46:20;;;;;;;19.92;15.32;;;;;;;;;;8263330;28;20045;-60
2023/05/16 00:50:20;;;;;;;22.42;14.82;;;;;;;;;;8262524;28;20028;-60
2023/05/16 00:54:21;;;;;;;19.55;14.50;;;;;;;;;;8259627;28;20669;-60
2023/05/16 00:58:21;;;;;;;18.10;13.57;;;;;;;;;;8261536;28;20026;-60
2023/05/16 01:02:22;;;;;;;22.88;14.70;;;;;;;;;;8263199;28;20042;-60
2023/05/16 01:06:22;;;;;;;17.58;12.60;;;;;;;;;;8262346;28;20614;-60
2023/05/16 01:10:23;;;;;;;17.37;11.77;;;;;;;;;;8260016;28;20079;-60
2023/05/16 01:14:35;;;;;;;19.02;11.63;;;;;;;;;;8259366;28;20109;-60
2023/05/16 01:18:42;;;;;;;17.58;12.40;;;;;;;;;;8260107;28;20985;-60
2023/05/16 01:22:46;;;;;;;14.52;11.45;;;;;;;;;;8260979;28;20874;-60
2023/05/16 01:26:47;;;;;;;17.75;11.00;;;;;;;;;;8262176;28;20057;-60
2023/05/16 01:30:49;;;;;;;13.60;10.55;;;;;;;;;;8258556;28;20567;-60
2023/05/16 01:34:50;;;;;;;15.63;11.85;;;;;;;;;;8266602;28;20029;-61
2023/05/16 01:39:03;;;;;;;13.63;10.80;;;;;;;;;;8268124;28;20029;-60
2023/05/16 01:43:07;;;;;;;14.82;11.57;;;;;;;;;;8267001;28;20021;-60
2023/05/16 01:47:15;;;;;;;19.35;12.60;;;;;;;;;;8265726;28;20540;-60
2023/05/16 01:51:15;;;;;;;13.85;11.02;;;;;;;;;;8267574;28;20026;-60
2023/05/16 01:55:18;;;;;;;15.05;11.50;;;;;;;;;;8264683;28;20850;-60
2023/05/16 01:59:22;;;;;;;16.85;11.60;;;;;;;;;;8267988;28;20041;-60
2023/05/16 02:03:22;;;;;;;;;;;;;;;;;;8267097;28;20038;-60
2023/05/16 02:07:22;;;;;;;16.08;9.90;;;;;;;;;;8265960;28;19917;-60
2023/05/16 02:11:23;;;;;;;14.60;11.13;;;;;;;;;;8263356;28;20109;-60
2023/05/16 02:15:23;;;;;;;15.93;10.93;;;;;;;;;;8264739;28;20057;-60
2023/05/16 02:19:23;;;;;;;14.10;10.65;;;;;;;;;;8264931;28;20296;-61
2023/05/16 02:23:23;;;;;;;15.23;11.18;;;;;;;;;;8266924;28;20037;-60
2023/05/16 02:27:23;;;;;;;14.38;10.38;;;;;;;;;;8268832;28;20033;-61
2023/05/16 02:31:27;;;;;;;16.05;11.00;;;;;;;;;;8265227;28;20117;-60
2023/05/16 02:35:27;;;;;;;14.77;10.70;;;;;;;;;;8267526;28;20022;-60
2023/05/16 02:39:28;;;;;;;14.75;10.95;;;;;;;;;;8266939;28;20068;-60
2023/05/16 02:43:29;;;;;;;15.93;11.18;;;;;;;;;;8264281;28;20029;-60
2023/05/16 02:47:29;;;;;;;15.82;10.27;;;;;;;;;;8265079;28;20128;-61
2023/05/16 02:51:29;;;;;;;15.18;10.55;;;;;;;;;;8266536;28;21493;-60
2023/05/16 02:55:29;;;;;;;13.68;9.15;;;;;;;;;;8264502;28;20513;-60
2023/05/16 02:59:30;;;;;;;17.57;10.67;;;;;;;;;;8267301;28;20029;-60
2023/05/16 03:03:30;;;;;;;17.35;10.15;;;;;;;;;;8264050;28;20400;-60
2023/05/16 03:07:30;;;;;;;14.00;10.07;;;;;;;;;;8265984;28;20553;-60
2023/05/16 03:11:30;;;;;;;17.10;10.18;;;;;;;;;;8264138;28;20334;-61
2023/05/16 03:15:31;;;;;;;14.53;9.47;;;;;;;;;;8264176;28;20040;-60
2023/05/16 03:19:31;;;;;;;12.98;9.05;;;;;;;;;;8264689;28;21076;-61
2023/05/16 03:23:31;;;;;;;15.05;9.98;;;;;;;;;;8262792;28;20682;-61
2023/05/16 03:27:31;;;;;;;13.50;9.55;;;;;;;;;;8264813;28;20038;-60
2023/05/16 03:31:32;;;;;;;14.48;9.20;;;;;;;;;;8265163;28;20030;-61
2023/05/16 03:35:33;;;;;;;13.05;8.45;;;;;;;;;;8264225;28;20065;-61
2023/05/16 03:39:33;;;;;;;13.38;8.30;;;;;;;;;;8263717;28;20029;-61
2023/05/16 03:43:33;;;;;;;10.10;7.27;;;;;;;;;;8263730;28;20501;-61
2023/05/16 03:47:34;;;;;;;9.70;6.97;;;;;;;;;;8262046;28;20118;-61
2023/05/16 03:51:34;;;;;;;11.80;7.03;;;;;;;;;;8264099;28;20022;-61
2023/05/16 03:55:34;;;;;;;10.68;6.13;;;;;;;;;;8263355;28;20183;-61
2023/05/16 03:59:35;;;;;;;8.45;6.32;;;;;;;;;;8261531;28;21063;-61
2023/05/16 04:03:37;;;;;;;7.40;6.20;;;;;;;;;;8263128;28;20043;-61
2023/05/16 04:07:37;;;;;;;6.57;4.72;;;;;;;;;;8262047;28;20377;-61
2023/05/16 04:11:37;;;;;;;8.95;5.05;;;;;;;;;;8261921;28;20114;-61
2023/05/16 04:15:38;;;;;;;6.82;4.78;;;;;;;;;;8260624;28;20037;-61
2023/05/16 04:19:38;;;;;;;7.15;4.07;;;;;;;;;;8262223;28;20037;-61
2023/05/16 04:23:38;;;;;;;4.32;3.20;;;;;;;;;;8262262;28;20032;-61
2023/05/16 04:27:38;;;;;;;3.75;2.80;;;;;;;;;;8261210;28;20025;-61
2023/05/16 04:31:38;;;;;;;2.10;1.90;;;;;;;;;;8261302;28;20117;-61
2023/05/16 04:35:39;;;;;;;2.22;1.60;;;;;;;;;;8263888;28;20025;-60
2023/05/16 04:39:39;;;;;;;1.55;1.45;;;;;;;;;;8263675;28;20141;-61
2023/05/16 04:43:40;;;;;;;2.40;1.50;;;;;;;;;;8261745;28;20514;-61
2023/05/16 04:47:41;;;;;;;1.50;1.40;;;;;;;;;;8260961;28;20037;-61
2023/05/16 04:51:41;;;;;;;1.77;1.40;;;;;;;;;;8254835;28;20048;-61
2023/05/16 04:55:41;;;;;;;4.03;1.00;;;;;;;;;;8261918;28;20030;-62
2023/05/16 04:59:41;;;;;;;2.05;1.17;;;;;;;;;;8260140;28;20136;-61
2023/05/16 05:03:42;;;;;;;1.63;1.20;;;;;;;;;;8262505;28;20041;-61
2023/05/16 05:07:42;;;;;;;1.00;0.90;;;;;;;;;;8262124;28;20075;-61
2023/05/16 05:11:42;;;;;;;1.08;0.85;;;;;;;;;;8267558;28;20026;-61
2023/05/16 05:15:42;;;;;;;0.90;0.90;;;;;;;;;;8268983;28;20474;-61
2023/05/16 05:19:42;;;;;;;1.67;1.20;;;;;;;;;;8265182;28;20025;-61
2023/05/16 05:23:42;;;;;;;1.17;1.00;;;;;;;;;;8267632;28;20039;-60
2023/05/16 05:27:43;;;;;;;1.17;1.08;;;;;;;;;;8267663;28;20415;-61
2023/05/16 05:31:43;;;;;;;1.70;0.90;;;;;;;;;;8267117;28;20037;-61
2023/05/16 05:35:43;;;;;;;0.82;0.82;;;;;;;;;;8269280;28;20966;-60
2023/05/16 05:39:43;;;;;;;0.88;0.88;;;;;;;;;;8267067;28;20029;-61
2023/05/16 05:43:44;;;;;;;1.00;1.00;;;;;;;;;;8269175;28;20018;-61
2023/05/16 05:47:44;;;;;;;0.87;0.80;;;;;;;;;;8266342;28;20041;-60
2023/05/16 05:51:45;;;;;;;0.90;0.90;;;;;;;;;;8270000;28;20260;-61
2023/05/16 05:55:45;;;;;;;4.23;0.77;;;;;;;;;;8269101;28;20022;-61
2023/05/16 05:59:46;;;;;;;0.77;0.60;;;;;;;;;;8267595;28;20030;-61
2023/05/16 06:03:46;;;;;;;1.85;0.70;;;;;;;;;;8265568;28;20030;-60
2023/05/16 06:07:46;;;;;;;0.60;0.60;;;;;;;;;;8263822;28;20585;-61
2023/05/16 06:11:46;;;;;;;1.50;0.60;;;;;;;;;;8263925;28;20030;-60
2023/05/16 06:15:53;;;;;;;0.60;0.60;;;;;;;;;;8263248;28;20033;-60
2023/05/16 06:19:53;;;;;;;0.88;0.60;;;;;;;;;;8265382;28;20037;-61
2023/05/16 06:23:53;;;;;;;2.65;0.60;;;;;;;;;;8266465;28;20962;-60
2023/05/16 06:27:53;;;;;;;0.43;0.43;;;;;;;;;;8263534;28;20033;-61
2023/05/16 06:31:54;;;;;;;0.70;0.70;;;;;;;;;;8264693;28;20067;-60
2023/05/16 06:35:54;;;;;;;0.60;0.60;;;;;;;;;;8262525;28;20036;-60
2023/05/16 06:39:54;;;;;;;0.53;0.53;;;;;;;;;;8265751;28;20430;-60
2023/05/16 06:43:55;;;;;;;0.50;0.50;;;;;;;;;;8263808;28;20299;-61
2023/05/16 06:47:55;;;;;;;0.70;0.70;;;;;;;;;;8261941;28;20292;-60
2023/05/16 06:51:56;;;;;;;0.82;0.82;;;;;;;;;;8265141;28;20368;-60
2023/05/16 06:55:56;;;;;;;1.05;0.70;;;;;;;;;;8263349;28;20017;-60
2023/05/16 06:59:56;;;;;;;0.55;0.55;;;;;;;;;;8263500;28;20096;-60
2023/05/16 07:03:56;;;;;;;0.50;0.50;;;;;;;;;;8257270;28;20120;-60
2023/05/16 07:07:56;;;;;;;0.73;0.50;;;;;;;;;;8255042;28;20029;-60
2023/05/16 07:11:57;;;;;;;0.50;0.50;;;;;;;;;;8260221;28;20467;-60
2023/05/16 07:15:57;;;;;;;0.55;0.55;;;;;;;;;;8255313;28;20506;-60
2023/05/16 07:19:57;;;;;;;1.80;0.43;;;;;;;;;;8256865;28;20054;-60
2023/05/16 07:23:57;;;;;;;0.50;0.50;;;;;;;;;;8258509;28;20112;-59
2023/05/16 07:27:58;;;;;;;0.70;0.52;;;;;;;;;;8255595;28;20026;-59
2023/05/16 07:31:58;;;;;;;0.68;0.43;;;;;;;;;;8255497;28;20072;-59
2023/05/16 07:35:58;;;;;;;1.63;0.50;;;;;;;;;;8257888;28;20029;-60
2023/05/16 07:39:59;;;;;;;0.40;0.40;;;;;;;;;;8259518;28;20154;-61
2023/05/16 07:43:59;;;;;;;0.60;0.60;;;;;;;;;;8260094;28;20029;-60
2023/05/16 07:47:59;;;;;;;0.97;0.50;;;;;;;;;;8253082;28;20041;-60
2023/05/16 07:51:59;;;;;;;1.85;0.50;;;;;;;;;;8259427;28;20885;-60
2023/05/16 07:56:00;;;;;;;0.70;0.63;;;;;;;;;;8263516;28;20044;-60
2023/05/16 08:00:00;;;;;;;0.40;0.40;;;;;;;;;;8259761;28;20029;-60
2023/05/16 08:04:00;;;;;;;0.40;0.40;;;;;;;;;;8262427;28;20045;-60
2023/05/16 08:08:00;;;;;;;0.45;0.45;;;;;;;;;;8260118;28;20146;-60
2023/05/16 08:12:02;;;;;;;1.00;0.40;;;;;;;;;;8262083;28;20403;-60
2023/05/16 08:16:02;;;;;;;0.40;0.40;;;;;;;;;;8259531;28;20581;-60
2023/05/16 08:20:03;;;;;;;0.87;0.40;;;;;;;;;;8261175;28;20795;-60
2023/05/16 08:24:04;;;;;;;1.25;0.57;;;;;;;;;;8260515;28;20037;-60
2023/05/16 08:28:04;;;;;;;0.50;0.50;;;;;;;;;;8263150;28;20021;-60
2023/05/16 08:32:04;;;;;;;0.60;0.45;;;;;;;;;;8261468;28;20049;-60
2023/05/16 08:36:05;;;;;;;1.88;0.50;;;;;;;;;;8263412;28;20030;-59
2023/05/16 08:40:07;;;;;;;0.88;0.50;;;;;;;;;;8261540;28;20462;-60
2023/05/16 08:44:09;;;;;;;0.50;0.40;;;;;;;;;;8263997;28;20030;-60
2023/05/16 08:48:10;;;;;;;1.40;0.70;;;;;;;;;;8261020;28;20157;-60
2023/05/16 08:52:10;;;;;;;1.33;0.60;;;;;;;;;;8263648;28;20041;-60
2023/05/16 08:56:12;;;;;;;1.02;0.70;;;;;;;;;;8261534;28;20574;-60
2023/05/16 09:00:12;;;;;;;1.27;0.70;;;;;;;;;;8258709;28;20029;-60
2023/05/16 09:04:13;;;;;;;1.33;0.80;;;;;;;;;;8261804;28;20040;-60
2023/05/16 09:08:13;;;;;;;0.73;0.68;;;;;;;;;;8259796;28;20529;-60
2023/05/16 09:12:13;;;;;;;2.67;0.70;;;;;;;;;;8260830;28;20030;-60
2023/05/16 09:16:14;;;;;;;1.85;0.90;;;;;;;;;;8257617;28;20034;-59
2023/05/16 09:20:16;;;;;;;1.17;0.80;;;;;;;;;;8260207;28;20041;-60
2023/05/16 09:24:16;;;;;;;2.08;0.70;;;;;;;;;;8262424;28;20029;-60
2023/05/16 09:28:17;;;;;;;1.55;0.88;;;;;;;;;;8259231;28;20029;-59
2023/05/16 09:32:17;;;;;;;2.65;1.20;;;;;;;;;;8261946;28;20065;-59
2023/05/16 09:36:17;;;;;;;4.35;1.23;;;;;;;;;;8260733;28;20197;-60
2023/05/16 09:40:21;;;;;;;4.17;1.30;;;;;;;;;;8260355;28;20026;-60
2023/05/16 09:44:22;;;;;;;4.22;1.48;;;;;;;;;;8260588;28;20272;-60
2023/05/16 09:48:22;;;;;;;4.57;1.80;;;;;;;;;;8258069;28;20268;-60
2023/05/16 09:52:26;;;;;;;4.13;1.42;;;;;;;;;;8258461;28;20025;-60
2023/05/16 09:56:26;;;;;;;2.90;1.33;;;;;;;;;;8264589;28;20021;-60
2023/05/16 10:00:30;;;;;;;4.77;1.67;;;;;;;;;;8264730;28;20030;-58
2023/05/16 10:04:30;;;;;;;7.20;1.65;;;;;;;;;;8264166;28;20021;-60
2023/05/16 10:08:35;;;;;;;3.90;1.70;;;;;;;;;;8265575;28;20055;-60
2023/05/16 10:12:35;;;;;;;7.78;2.17;;;;;;;;;;8267126;28;20454;-60
2023/05/16 10:16:36;;;;;;;4.25;1.70;;;;;;;;;;8264247;28;20647;-60
2023/05/16 10:20:37;;;;;;;6.07;2.10;;;;;;;;;;8265369;28;20469;-60
2023/05/16 10:24:43;;;;;;;4.70;1.80;;;;;;;;;;8265367;28;20030;-60
2023/05/16 10:28:44;;;;;;;6.63;1.85;;;;;;;;;;8263750;28;20029;-60
2023/05/16 10:32:45;;;;;;;8.02;1.90;;;;;;;;;;8264247;28;20256;-60
2023/05/16 10:36:45;;;;;;;7.97;1.67;;;;;;;;;;8265349;28;20037;-60
2023/05/16 10:40:46;;;;;;;4.95;1.58;;;;;;;;;;8262284;28;20021;-60
2023/05/16 10:44:46;;;;;;;4.68;1.55;;;;;;;;;;8263603;28;20819;-61
2023/05/16 10:48:46;;;;;;;3.97;1.63;;;;;;;;;;8262099;28;20144;-60
2023/05/16 10:52:51;;;;;;;3.95;1.45;;;;;;;;;;8261364;28;20592;-61
2023/05/16 10:56:55;;;;;;;5.85;1.73;;;;;;;;;;8265194;28;20121;-60
2023/05/16 11:01:25;;;;;;;5.78;1.52;;;;;;;;;;8261311;28;20037;-60
2023/05/16 11:05:26;;;;;;;4.70;1.58;;;;;;;;;;8240081;28;20137;-60
2023/05/16 11:09:26;;;;;;;4.45;1.55;;;;;;;;;;8249009;28;20153;-61
2023/05/16 11:13:26;;;;;;;6.43;1.67;;;;;;;;;;8262636;28;20184;-60
2023/05/16 11:17:27;;;;;;;6.00;1.65;;;;;;;;;;8257841;28;20046;-60
2023/05/16 11:21:48;;;;;;;6.75;1.65;;;;;;;;;;8262310;28;20551;-60
2023/05/16 11:25:52;;;;;;;5.53;1.50;;;;;;;;;;8262321;28;20036;-60
2023/05/16 11:29:55;;;;;;;6.00;1.50;;;;;;;;;;8260209;28;20502;-60
2023/05/16 11:33:55;;;;;;;7.40;1.60;;;;;;;;;;8262115;28;20375;-60
2023/05/16 11:37:56;;;;;;;7.20;1.40;;;;;;;;;;8264483;28;20033;-60
2023/05/16 11:41:56;;;;;;;4.47;1.65;;;;;;;;;;8262627;28;20030;-60
2023/05/16 11:45:57;;;;;;;7.75;1.42;;;;;;;;;;8262687;28;20132;-60
2023/05/16 11:49:57;;;;;;;5.20;1.30;;;;;;;;;;8262750;28;20032;-60
2023/05/16 11:53:58;;;;;;;4.70;1.37;;;;;;;;;;8259139;28;21870;-60
2023/05/16 11:57:58;;;;;;;6.85;1.40;;;;;;;;;;8259907;28;20292;-60
2023/05/16 12:02:02;;;;;;;4.80;1.55;;;;;;;;;;8262497;28;20046;-61
2023/05/16 12:06:02;;;;;;;6.30;1.48;;;;;;;;;;8270168;28;20110;-60
2023/05/16 12:10:06;;;;;;;5.83;1.50;;;;;;;;;;8262062;28;20037;-61
2023/05/16 12:14:08;;;;;;;4.22;1.40;;;;;;;;;;8262131;28;20287;-60
2023/05/16 12:18:09;;;;;;;4.05;1.20;;;;;;;;;;8254492;28;20762;-61
2023/05/16 12:22:16;;;;;;;8.43;1.67;;;;;;;;;;8252761;28;20029;-61
2023/05/16 12:26:23;;;;;;;5.40;1.67;;;;;;;;;;8262337;28;20394;-61
2023/05/16 12:30:25;;;;;;;5.32;1.60;;;;;;;;;;8259695;28;20128;-61
2023/05/16 12:34:29;;;;;;;5.40;1.42;;;;;;;;;;8263829;28;20061;-61
2023/05/16 12:38:29;;;;;;;5.35;1.58;;;;;;;;;;8261286;28;20025;-61
2023/05/16 12:42:30;;;;;;;4.43;1.50;;;;;;;;;;8261566;28;20742;-61
2023/05/16 12:46:30;;;;;;;8.00;1.48;;;;;;;;;;8258854;28;20061;-61
2023/05/16 12:50:31;;;;;;;5.57;1.58;;;;;;;;;;8260458;28;20033;-61
2023/05/16 12:54:32;;;;;;;2.35;1.15;;;;;;;;;;8260905;28;20332;-61
2023/05/16 12:58:32;;;;;;;3.00;1.30;;;;;;;;;;8263538;28;20084;-61
2023/05/16 13:02:33;;;;;;;4.18;1.33;;;;;;;;;;8258727;28;20045;-61
2023/05/16 13:06:33;;;;;;;4.50;1.25;;;;;;;;;;8262066;28;20040;-61
2023/05/16 13:10:34;;;;;;;4.53;1.50;;;;;;;;;;8263011;28;20057;-61
2023/05/16 13:14:35;;;;;;;5.70;1.48;;;;;;;;;;8261454;28;20022;-61
2023/05/16 13:18:35;;;;;;;5.25;1.30;;;;;;;;;;8261492;28;20758;-61
2023/05/16 13:22:35;;;;;;;5.43;1.30;;;;;;;;;;8261107;28;20029;-61
2023/05/16 13:26:36;;;;;;;3.53;1.20;;;;;;;;;;8263139;28;20060;-61
2023/05/16 13:30:36;;;;;;;2.80;1.10;;;;;;;;;;8263100;28;20102;-61
2023/05/16 13:34:36;;;;;;;5.97;1.48;;;;;;;;;;8267481;28;20032;-61
2023/05/16 13:38:36;;;;;;;3.92;1.10;;;;;;;;;;8266014;28;20490;-61
2023/05/16 13:42:37;;;;;;;3.88;1.15;;;;;;;;;;8254634;28;20482;-61
2023/05/16 13:46:37;;;;;;;2.05;0.90;;;;;;;;;;8261617;28;20049;-61
2023/05/16 13:50:38;;;;;;;3.45;1.00;;;;;;;;;;8264125;28;20037;-62
2023/05/16 13:54:40;;;;;;;3.90;1.20;;;;;;;;;;8262791;28;20496;-60
2023/05/16 13:58:40;;;;;;;2.92;1.00;;;;;;;;;;8264739;28;21021;-60
2023/05/16 14:02:41;;;;;;;6.30;1.13;;;;;;;;;;8264538;28;20041;-61
2023/05/16 14:06:41;;;;;;;5.47;1.45;;;;;;;;;;8266845;28;20021;-61
2023/05/16 14:10:41;;;;;;;4.95;1.10;;;;;;;;;;8267128;28;20470;-61
2023/05/16 14:14:41;;;;;;;2.90;1.17;;;;;;;;;;8266640;28;20032;-61
2023/05/16 14:18:42;;;;;;;3.75;1.10;;;;;;;;;;8268326;28;20030;-62
2023/05/16 14:22:42;;;;;;;2.50;1.15;;;;;;;;;;8266162;28;20084;-61
2023/05/16 14:26:42;;;;;;;2.50;1.10;;;;;;;;;;8266270;28;20136;-61
2023/05/16 14:30:42;;;;;;;5.35;1.10;;;;;;;;;;8265176;28;20088;-61
2023/05/16 14:34:43;;;;;;;9.50;1.07;;;;;;;;;;8264893;28;20030;-61
2023/05/16 14:38:43;;;;;;;3.00;1.02;;;;;;;;;;8266242;28;20324;-61
2023/05/16 14:42:43;;;;;;;8.00;0.95;;;;;;;;;;8263548;28;20593;-61
2023/05/16 14:46:43;;;;;;;4.83;1.20;;;;;;;;;;8264363;28;20034;-60
2023/05/16 14:50:44;;;;;;;4.45;1.10;;;;;;;;;;8267937;28;20041;-60
2023/05/16 14:54:45;;;;;;;5.53;1.13;;;;;;;;;;8267523;28;20059;-61
2023/05/16 14:58:45;;;;;;;2.70;0.90;;;;;;;;;;8264564;28;20025;-61
2023/05/16 15:02:45;;;;;;;4.90;1.30;;;;;;;;;;8263447;28;20438;-60
2023/05/16 15:06:45;;;;;;;4.03;1.27;;;;;;;;;;8265843;28;20018;-60
2023/05/16 15:10:45;;;;;;;2.93;1.10;;;;;;;;;;8260103;28;20118;-61
2023/05/16 15:14:46;;;;;;;1.92;0.80;;;;;;;;;;8263000;28;20029;-60
2023/05/16 15:18:46;;;;;;;6.75;1.00;;;;;;;;;;8266724;28;20096;-60
2023/05/16 15:22:46;;;;;;;3.63;1.10;;;;;;;;;;8266848;28;20029;-61
2023/05/16 15:26:47;;;;;;;3.63;1.17;;;;;;;;;;8269816;28;20549;-60
2023/05/16 15:30:47;;;;;;;3.38;1.20;;;;;;;;;;8265925;28;20057;-60
2023/05/16 15:34:47;;;;;;;7.57;1.20;;;;;;;;;;8267767;28;20864;-60
2023/05/16 15:38:47;;;;;;;4.57;1.00;;;;;;;;;;8267275;28;20029;-60
2023/05/16 15:42:47;;;;;;;4.43;1.13;;;;;;;;;;8268321;28;20024;-60
2023/05/16 15:46:48;;;;;;;3.33;1.10;;;;;;;;;;8263441;28;20151;-60
2023/05/16 15:50:48;;;;;;;3.75;1.02;;;;;;;;;;8266572;28;20871;-60
2023/05/16 15:54:48;;;;;;;3.85;1.20;;;;;;;;;;8266115;28;20064;-59
2023/05/16 15:58:48;;;;;;;2.23;1.10;;;;;;;;;;8263710;28;20032;-60
2023/05/16 16:02:49;;;;;;;3.63;0.90;;;;;;;;;;8265148;28;20038;-61
2023/05/16 16:06:49;;;;;;;4.13;1.00;;;;;;;;;;8265443;28;20021;-61
2023/05/16 16:10:50;;;;;;;3.57;1.00;;;;;;;;;;8265860;28;20030;-60
2023/05/16 16:14:50;;;;;;;3.05;1.10;;;;;;;;;;8267032;28;20030;-61
2023/05/16 16:18:51;;;;;;;3.17;0.90;;;;;;;;;;8267329;28;20030;-61
2023/05/16 16:22:52;;;;;;;4.72;1.00;;;;;;;;;;8268301;28;20075;-61
2023/05/16 16:26:52;;;;;;;6.53;1.10;;;;;;;;;;8265068;28;20033;-60
2023/05/16 16:30:52;;;;;;;8.35;1.15;;;;;;;;;;8265889;28;20041;-60
2023/05/16 16:34:52;;;;;;;3.75;0.90;;;;;;;;;;8268835;28;20026;-60
2023/05/16 16:38:52;;;;;;;2.78;0.90;;;;;;;;;;8264371;28;20109;-60
2023/05/16 16:42:53;;;;;;;2.50;0.85;;;;;;;;;;8264273;28;20585;-61
2023/05/16 16:46:53;;;;;;;2.72;0.82;;;;;;;;;;8261042;28;20038;-61
2023/05/16 16:50:53;;;;;;;2.78;0.85;;;;;;;;;;8263983;28;20112;-60
2023/05/16 16:54:53;;;;;;;2.75;0.75;;;;;;;;;;8266701;28;20498;-60
2023/05/16 16:58:53;;;;;;;1.00;0.80;;;;;;;;;;8264157;28;20037;-60
2023/05/16 17:02:54;;;;;;;3.95;0.90;;;;;;;;;;8265279;28;20432;-65
2023/05/16 17:06:54;;;;;;;2.60;0.90;;;;;;;;;;8270274;28;20120;-61
2023/05/16 17:10:54;;;;;;;2.17;1.00;;;;;;;;;;8271708;28;20464;-61
2023/05/16 17:14:57;;;;;;;3.70;0.85;;;;;;;;;;8272368;28;20023;-61
2023/05/16 17:18:58;;;;;;;3.83;1.00;;;;;;;;;;8268353;28;20076;-60
2023/05/16 17:22:58;;;;;;;1.90;1.00;;;;;;;;;;8270619;28;20317;-61
2023/05/16 17:26:59;;;;;;;1.93;0.90;;;;;;;;;;8268289;28;20534;-60
2023/05/16 17:30:59;;;;;;;4.82;1.00;;;;;;;;;;8265955;28;20042;-61
2023/05/16 17:35:02;;;;;;;2.60;0.80;;;;;;;;;;8269482;28;20438;-60
2023/05/16 17:39:06;;;;;;;5.00;0.97;;;;;;;;;;8267875;28;20983;-60
2023/05/16 17:43:06;;;;;;;3.17;0.95;;;;;;;;;;8269419;28;20079;-60
2023/05/16 17:47:07;;;;;;;3.15;0.98;;;;;;;;;;8267690;28;20116;-60
2023/05/16 17:51:07;;;;;;;2.38;0.90;;;;;;;;;;8270837;28;20033;-61
2023/05/16 17:55:07;;;;;;;2.80;1.00;;;;;;;;;;8266579;28;20029;-60
2023/05/16 17:59:09;;;;;;;2.92;0.90;;;;;;;;;;8267193;28;20034;-60
2023/05/16 18:03:09;;;;;;;4.25;1.00;;;;;;;;;;8267562;28;20122;-61
2023/05/16 18:07:09;;;;;;;4.35;1.00;;;;;;;;;;8264598;28;20116;-60
2023/05/16 18:11:10;;;;;;;1.10;0.80;;;;;;;;;;8267156;28;20510;-61
2023/05/16 18:15:10;;;;;;;4.03;0.90;;;;;;;;;;8262470;28;20546;-61
2023/05/16 18:19:11;;;;;;;3.05;1.02;;;;;;;;;;8259618;28;20031;-60
2023/05/16 18:23:11;;;;;;;5.93;1.00;;;;;;;;;;8261580;28;20056;-60
2023/05/16 18:27:12;;;;;;;2.88;1.10;;;;;;;;;;8258731;28;20129;-60
2023/05/16 18:31:12;;;;;;;3.73;1.00;;;;;;;;;;8257123;28;20499;-61
2023/05/16 18:35:12;;;;;;;0.73;0.73;;;;;;;;;;8258865;28;20630;-60
2023/05/16 18:39:12;;;;;;;3.10;0.90;;;;;;;;;;8260073;28;20045;-61
2023/05/16 18:43:13;;;;;;;1.47;1.17;;;;;;;;;;8260898;28;20033;-60
2023/05/16 18:47:14;;;;;;;1.73;0.65;;;;;;;;;;8260628;28;20331;-60
2023/05/16 18:51:15;;;;;;;2.30;0.88;;;;;;;;;;8260017;28;20465;-60
2023/05/16 18:55:15;;;;;;;3.00;0.90;;;;;;;;;;8263214;28;20056;-60
2023/05/16 18:59:17;;;;;;;3.17;0.88;;;;;;;;;;8255336;28;20025;-60
2023/05/16 19:03:18;;;;;;;0.82;0.73;;;;;;;;;;8260658;28;20737;-60
2023/05/16 19:07:18;;;;;;;3.28;1.00;;;;;;;;;;8260167;28;20439;-60
2023/05/16 19:11:18;;;;;;;5.00;1.00;;;;;;;;;;8259731;28;20029;-60
2023/05/16 19:15:18;;;;;;;3.55;0.90;;;;;;;;;;8256701;28;20357;-60
2023/05/16 19:19:19;;;;;;;2.05;0.90;;;;;;;;;;8263565;28;20065;-60
2023/05/16 19:23:20;;;;;;;1.02;0.68;;;;;;;;;;8264353;28;20030;-61
2023/05/16 19:27:20;;;;;;;1.30;0.80;;;;;;;;;;8256594;28;20030;-60
2023/05/16 19:31:20;;;;;;;1.75;0.95;;;;;;;;;;8256485;28;20112;-60
2023/05/16 19:35:20;;;;;;;3.35;0.95;;;;;;;;;;8261921;28;20033;-60
2023/05/16 19:39:20;;;;;;;0.88;0.70;;;;;;;;;;8263937;28;20038;-60
2023/05/16 19:43:21;;;;;;;2.70;0.90;;;;;;;;;;8264603;28;20029;-60
2023/05/16 19:47:21;;;;;;;2.88;0.90;;;;;;;;;;8258193;28;20577;-60
2023/05/16 19:51:21;;;;;;;2.93;1.00;;;;;;;;;;8261071;28;20014;-61
2023/05/16 19:55:21;;;;;;;0.93;0.70;;;;;;;;;;8256398;28;20026;-60
2023/05/16 19:59:22;;;;;;;4.90;0.97;;;;;;;;;;8255905;28;20675;-60
2023/05/16 20:03:22;;;;;;;4.17;0.80;;;;;;;;;;8262439;28;20149;-60
2023/05/16 20:07:23;;;;;;;1.87;0.77;;;;;;;;;;8261918;28;20044;-60
2023/05/16 20:11:23;;;;;;;2.45;0.95;;;;;;;;;;8259636;28;20029;-60
2023/05/16 20:15:23;;;;;;;2.63;0.90;;;;;;;;;;8262851;28;20045;-60
2023/05/16 20:19:23;;;;;;;3.65;0.85;;;;;;;;;;8261695;28;20037;-60
2023/05/16 20:23:24;;;;;;;2.55;1.70;;;;;;;;;;8264899;28;20026;-60
2023/05/16 20:27:24;;;;;;;2.78;1.33;;;;;;;;;;8260647;28;20136;-60
2023/05/16 20:31:24;;;;;;;3.07;1.50;;;;;;;;;;8263076;28;20100;-60
2023/05/16 20:35:25;;;;;;;4.00;1.10;;;;;;;;;;8263758;28;20264;-60
2023/05/16 20:39:25;;;;;;;3.88;1.20;;;;;;;;;;8259334;28;20215;-60
2023/05/16 20:43:25;;;;;;;7.77;1.20;;;;;;;;;;8261055;28;20499;-60
2023/05/16 20:47:26;;;;;;;2.13;1.13;;;;;;;;;;8264568;28;20299;-60
2023/05/16 20:51:27;;;;;;;2.17;1.00;;;;;;;;;;8263400;28;20901;-60
2023/05/16 20:55:27;;;;;;;3.78;0.93;;;;;;;;;;8264241;28;20052;-60
2023/05/16 20:59:27;;;;;;;2.85;1.10;;;;;;;;;;8263418;28;20029;-60
2023/05/16 21:03:28;;;;;;;4.40;1.10;;;;;;;;;;8264805;28;20469;-60
2023/05/16 21:07:28;;;;;;;3.40;1.30;;;;;;;;;;8262220;28;20375;-60
2023/05/16 21:11:31;;;;;;;3.10;1.50;;;;;;;;;;8264258;28;20018;-60
2023/05/16 21:15:31;;;;;;;2.80;1.30;;;;;;;;;;8261210;28;20060;-60
2023/05/16 21:19:33;;;;;;;2.47;1.00;;;;;;;;;;8260927;28;20021;-60
2023/05/16 21:23:33;;;;;;;4.47;1.20;;;;;;;;;;8260529;28;20029;-60
2023/05/16 21:27:34;;;;;;;3.17;1.02;;;;;;;;;;8266902;28;20057;-60
2023/05/16 21:31:34;;;;;;;3.10;1.30;;;;;;;;;;8264813;28;20038;-60
2023/05/16 21:35:34;;;;;;;2.40;0.95;;;;;;;;;;8265008;28;20163;-60
2023/05/16 21:39:34;;;;;;;4.00;1.00;;;;;;;;;;8261489;28;20064;-60
2023/05/16 21:43:35;;;;;;;3.77;1.20;;;;;;;;;;8264695;28;20030;-60
2023/05/16 21:47:35;;;;;;;5.97;1.40;;;;;;;;;;8262596;28;20323;-61
2023/05/16 21:51:35;;;;;;;3.88;1.20;;;;;;;;;;8268056;28;20029;-60
2023/05/16 21:55:36;;;;;;;3.20;1.38;;;;;;;;;;8267014;28;20037;-60
2023/05/16 21:59:36;;;;;;;2.38;1.10;;;;;;;;;;8269975;28;20106;-60
2023/05/16 22:03:36;;;;;;;3.72;1.30;;;;;;;;;;8270227;28;20933;-60
2023/05/16 22:07:36;;;;;;;2.83;1.23;;;;;;;;;;8267875;28;20022;-60
2023/05/16 22:11:36;;;;;;;5.10;1.38;;;;;;;;;;8269397;28;20095;-60
2023/05/16 22:15:37;;;;;;;5.82;1.35;;;;;;;;;;8268634;28;20103;-60
2023/05/16 22:19:37;;;;;;;5.40;1.42;;;;;;;;;;8269511;28;20056;-60
2023/05/16 22:23:37;;;;;;;1.73;1.20;;;;;;;;;;8271088;28;20083;-59
2023/05/16 22:27:38;;;;;;;1.92;1.17;;;;;;;;;;8267845;28;20054;-60
2023/05/16 22:31:38;;;;;;;5.30;1.73;;;;;;;;;;8270729;28;20076;-60
2023/05/16 22:35:38;;;;;;;6.40;1.35;;;;;;;;;;8269839;28;20033;-60
2023/05/16 22:39:38;;;;;;;2.73;1.50;;;;;;;;;;8267383;28;20033;-60
2023/05/16 22:43:39;;;;;;;3.97;1.40;;;;;;;;;;8268232;28;20365;-60
2023/05/16 22:47:39;;;;;;;2.47;1.30;;;;;;;;;;8268310;28;20772;-60
2023/05/16 22:51:39;;;;;;;6.38;1.50;;;;;;;;;;8268636;28;20661;-60
2023/05/16 22:55:39;;;;;;;5.60;1.58;;;;;;;;;;8268031;28;20064;-60
2023/05/16 22:59:39;;;;;;;5.20;1.20;;;;;;;;;;8267307;28;20030;-60
2023/05/16 23:03:40;;;;;;;2.88;1.38;;;;;;;;;;8269010;28;20269;-60
2023/05/16 23:07:40;;;;;;;3.08;1.48;;;;;;;;;;8268386;28;20030;-60
2023/05/16 23:11:40;;;;;;;2.70;1.43;;;;;;;;;;8267851;28;20033;-60
2023/05/16 23:15:40;;;;;;;4.18;1.30;;;;;;;;;;8266582;28;20068;-60
2023/05/16 23:19:40;;;;;;;3.40;1.70;;;;;;;;;;8266353;28;20025;-60
2023/05/16 23:23:41;;;;;;;2.55;1.50;;;;;;;;;;8265963;28;20482;-60
2023/05/16 23:27:41;;;;;;;2.97;1.50;;;;;;;;;;8266997;28;20033;-60
2023/05/16 23:31:41;;;;;;;3.95;1.73;;;;;;;;;;8268461;28;20038;-60
2023/05/16 23:35:41;;;;;;;3.03;1.60;;;;;;;;;;8264792;28;20033;-60
2023/05/16 23:39:42;;;;;;;6.40;1.55;;;;;;;;;;8266964;28;20030;-60
2023/05/16 23:43:42;;;;;;;3.87;1.50;;;;;;;;;;8267429;28;20037;-60
2023/05/16 23:47:42;;;;;;;4.82;1.38;;;;;;;;;;8265600;28;20284;-60
2023/05/16 23:51:43;;;;;;;8.57;1.98;;;;;;;;;;8267723;28;20057;-61
2023/05/16 23:55:43;;;;;;;7.93;1.90;;;;;;;;;;8263578;28;20124;-60
2023/05/16 23:59:43;;;;;;;2.53;1.30;;;;;;;;;;8265969;28;20814;-60
